Aérodrome :
LOGIN :

S'inscrire | Disclaimer

   EN    FR    IT 

 










Légende :    VFR   VFR Marginal   IFR   IFR Intensif   IFR Très Intensif
Visi : 
Plafond : 
>= 8 km
>= 3000ft
5 à 8 km
1000 à 3000 ft
1500m à 5 km
500 à 1000 ft
800 à 1500m
200 à 500 ft
< 800m
< 200 ft
Symboles :   Orages  Brouillard  Fortes neiges  Fortes précipitations  Vent > 20 kt
SIGMETs :   Divers  Orages  Givrage  Turbulence  Onde Orograph.  Cendres Volcan.







- Altitude de l'aérodrome : 170 ft
- Code IATA : BGO


ENBR - Bergen , Flesland

DERNIER METAR :
  • 182250Z 15011KT 6000 -RA FEW004 BKN013 14/13 Q1006 RMK WIND 1200FT 14022KT

METARs EXPIRÉS :
  • 182150Z 16007KT 5000 +DZ FEW004 OVC035 14/13 Q1006 REDZ RMK WIND 1200FT 14021KT
  • 182120Z 16007KT 9999 -DZ FEW008 SCT016 BKN035 15/13 Q1005 RMK WIND 1200FT 14021KT

TAF TAF ENBR
Valide du 19 à 00h jusqu'au 20 à 00h UTC


1900/1924 17008KT 9999 -RA FEW005 BKN030
TEMPO 1900/1903 16015G25KT 4000 SHRA BKN010 SCT020CB
PROB40 1903/1906 BKN005
TEMPO 1909/1915 SHRA BKN014TCU
Pas de NOTAMs connus pour ce terrain.



MET'MAP, la Météo Aéronautique d'un coup d'oeil ! - Copyright ORBIFLY Décembre 2007 - Disclaimer

ORBIFLY MET'MAP TEAM :

Programmation & Développement : Alexandra Zaïnal
Conception & Développement : Baudouin d'Aumeries
Co-Programmation & Développement : Marc-Olivier Méhu
Soutien technique & logistique : Manuel Goepfert

Contact : metmap@orbifly.com




SOURCES & CREDITS :

   NOAA